sensor_id;sensor_type;location;lat;lon;timestamp;P1;durP1;ratioP1;P2;durP2;ratioP2
34697;SDS011;61391;50.922;6.928;2023-07-09T00:01:32;4.70;;;2.58;;
34697;SDS011;61391;50.922;6.928;2023-07-09T00:07:31;4.18;;;2.42;;
34697;SDS011;61391;50.922;6.928;2023-07-09T00:13:35;5.20;;;2.47;;
34697;SDS011;61391;50.922;6.928;2023-07-09T00:19:28;3.25;;;2.00;;
34697;SDS011;61391;50.922;6.928;2023-07-09T00:21:56;3.35;;;2.35;;
34697;SDS011;61391;50.922;6.928;2023-07-09T00:27:50;3.13;;;2.50;;
34697;SDS011;61391;50.922;6.928;2023-07-09T00:30:23;4.38;;;2.40;;
34697;SDS011;61391;50.922;6.928;2023-07-09T00:32:49;4.38;;;2.58;;
34697;SDS011;61391;50.922;6.928;2023-07-09T00:35:20;3.03;;;2.72;;
34697;SDS011;61391;50.922;6.928;2023-07-09T00:38:15;4.00;;;2.75;;
34697;SDS011;61391;50.922;6.928;2023-07-09T00:41:05;4.07;;;2.40;;
34697;SDS011;61391;50.922;6.928;2023-07-09T00:47:18;3.22;;;2.70;;
34697;SDS011;61391;50.922;6.928;2023-07-09T00:54:34;3.05;;;2.28;;
34697;SDS011;61391;50.922;6.928;2023-07-09T00:57:16;4.97;;;2.53;;
34697;SDS011;61391;50.922;6.928;2023-07-09T01:03:14;4.00;;;3.25;;
34697;SDS011;61391;50.922;6.928;2023-07-09T01:11:54;3.20;;;2.50;;
34697;SDS011;61391;50.922;6.928;2023-07-09T01:14:21;4.13;;;2.53;;
34697;SDS011;61391;50.922;6.928;2023-07-09T01:16:51;3.20;;;2.13;;
34697;SDS011;61391;50.922;6.928;2023-07-09T01:22:53;3.63;;;2.33;;
34697;SDS011;61391;50.922;6.928;2023-07-09T01:25:38;4.17;;;2.03;;
34697;SDS011;61391;50.922;6.928;2023-07-09T01:31:32;4.32;;;2.63;;
34697;SDS011;61391;50.922;6.928;2023-07-09T01:34:08;4.03;;;2.38;;
34697;SDS011;61391;50.922;6.928;2023-07-09T01:36:34;3.40;;;2.40;;
34697;SDS011;61391;50.922;6.928;2023-07-09T01:39:01;4.95;;;3.10;;
34697;SDS011;61391;50.922;6.928;2023-07-09T01:41:31;3.67;;;2.60;;
34697;SDS011;61391;50.922;6.928;2023-07-09T01:43:59;5.53;;;3.38;;
34697;SDS011;61391;50.922;6.928;2023-07-09T01:49:59;6.13;;;3.03;;
34697;SDS011;61391;50.922;6.928;2023-07-09T01:52:32;4.20;;;3.25;;
34697;SDS011;61391;50.922;6.928;2023-07-09T01:55:02;4.78;;;2.58;;
34697;SDS011;61391;50.922;6.928;2023-07-09T02:00:52;3.80;;;2.88;;
34697;SDS011;61391;50.922;6.928;2023-07-09T02:03:19;4.68;;;2.80;;
34697;SDS011;61391;50.922;6.928;2023-07-09T02:05:45;5.30;;;3.03;;
34697;SDS011;61391;50.922;6.928;2023-07-09T02:11:34;4.73;;;2.73;;
34697;SDS011;61391;50.922;6.928;2023-07-09T02:14:01;3.75;;;2.65;;
34697;SDS011;61391;50.922;6.928;2023-07-09T02:16:28;4.55;;;2.65;;
34697;SDS011;61391;50.922;6.928;2023-07-09T02:19:15;4.60;;;3.00;;
34697;SDS011;61391;50.922;6.928;2023-07-09T02:21:45;4.93;;;2.70;;
34697;SDS011;61391;50.922;6.928;2023-07-09T02:24:29;4.53;;;2.38;;
34697;SDS011;61391;50.922;6.928;2023-07-09T02:27:10;3.28;;;2.58;;
34697;SDS011;61391;50.922;6.928;2023-07-09T02:33:03;3.30;;;2.38;;
34697;SDS011;61391;50.922;6.928;2023-07-09T02:35:39;3.47;;;2.65;;
34697;SDS011;61391;50.922;6.928;2023-07-09T02:41:35;3.10;;;2.35;;
34697;SDS011;61391;50.922;6.928;2023-07-09T02:44:08;7.18;;;3.63;;
34697;SDS011;61391;50.922;6.928;2023-07-09T02:46:35;5.00;;;2.72;;
34697;SDS011;61391;50.922;6.928;2023-07-09T02:49:04;3.35;;;2.17;;
34697;SDS011;61391;50.922;6.928;2023-07-09T02:51:36;6.50;;;3.08;;
34697;SDS011;61391;50.922;6.928;2023-07-09T02:54:08;5.45;;;2.95;;
34697;SDS011;61391;50.922;6.928;2023-07-09T02:59:59;3.15;;;2.50;;
34697;SDS011;61391;50.922;6.928;2023-07-09T03:02:39;3.00;;;2.70;;
34697;SDS011;61391;50.922;6.928;2023-07-09T03:05:05;2.88;;;2.60;;
34697;SDS011;61391;50.922;6.928;2023-07-09T03:07:31;4.10;;;2.33;;
34697;SDS011;61391;50.922;6.928;2023-07-09T03:09:57;3.33;;;2.67;;
34697;SDS011;61391;50.922;6.928;2023-07-09T03:12:24;3.22;;;2.53;;
34697;SDS011;61391;50.922;6.928;2023-07-09T03:14:50;3.03;;;2.35;;
34697;SDS011;61391;50.922;6.928;2023-07-09T03:20:39;4.18;;;2.88;;
34697;SDS011;61391;50.922;6.928;2023-07-09T03:23:06;5.43;;;2.78;;
34697;SDS011;61391;50.922;6.928;2023-07-09T03:28:10;3.85;;;2.42;;
34697;SDS011;61391;50.922;6.928;2023-07-09T03:30:48;3.17;;;2.33;;
34697;SDS011;61391;50.922;6.928;2023-07-09T03:33:18;3.45;;;2.38;;
34697;SDS011;61391;50.922;6.928;2023-07-09T03:35:56;2.92;;;2.50;;
34697;SDS011;61391;50.922;6.928;2023-07-09T03:41:45;3.60;;;2.78;;
34697;SDS011;61391;50.922;6.928;2023-07-09T03:44:13;2.92;;;2.60;;
34697;SDS011;61391;50.922;6.928;2023-07-09T03:46:39;3.10;;;2.30;;
34697;SDS011;61391;50.922;6.928;2023-07-09T03:49:06;3.40;;;2.28;;
34697;SDS011;61391;50.922;6.928;2023-07-09T03:51:32;2.78;;;2.38;;
34697;SDS011;61391;50.922;6.928;2023-07-09T03:54:00;3.80;;;2.20;;
34697;SDS011;61391;50.922;6.928;2023-07-09T03:59:49;3.90;;;2.73;;
34697;SDS011;61391;50.922;6.928;2023-07-09T04:02:15;3.03;;;2.60;;
34697;SDS011;61391;50.922;6.928;2023-07-09T04:04:47;4.38;;;2.63;;
34697;SDS011;61391;50.922;6.928;2023-07-09T04:10:35;2.85;;;2.60;;
34697;SDS011;61391;50.922;6.928;2023-07-09T04:13:31;3.50;;;2.35;;
34697;SDS011;61391;50.922;6.928;2023-07-09T04:15:59;2.60;;;2.35;;
34697;SDS011;61391;50.922;6.928;2023-07-09T04:18:25;3.13;;;2.42;;
34697;SDS011;61391;50.922;6.928;2023-07-09T04:20:54;3.33;;;2.63;;
34697;SDS011;61391;50.922;6.928;2023-07-09T04:23:21;2.65;;;2.20;;
34697;SDS011;61391;50.922;6.928;2023-07-09T04:29:09;3.70;;;2.53;;
34697;SDS011;61391;50.922;6.928;2023-07-09T04:31:37;4.55;;;2.75;;
34697;SDS011;61391;50.922;6.928;2023-07-09T04:34:04;3.40;;;2.70;;
34697;SDS011;61391;50.922;6.928;2023-07-09T04:36:32;3.42;;;2.42;;
34697;SDS011;61391;50.922;6.928;2023-07-09T04:39:02;3.45;;;2.40;;
34697;SDS011;61391;50.922;6.928;2023-07-09T04:41:31;4.35;;;2.33;;
34697;SDS011;61391;50.922;6.928;2023-07-09T04:43:59;4.88;;;3.08;;
34697;SDS011;61391;50.922;6.928;2023-07-09T04:46:29;3.55;;;2.55;;
34697;SDS011;61391;50.922;6.928;2023-07-09T04:48:59;3.13;;;2.00;;
34697;SDS011;61391;50.922;6.928;2023-07-09T04:51:28;3.20;;;2.03;;
34697;SDS011;61391;50.922;6.928;2023-07-09T04:53:58;2.90;;;2.28;;
34697;SDS011;61391;50.922;6.928;2023-07-09T04:56:29;3.40;;;2.40;;
34697;SDS011;61391;50.922;6.928;2023-07-09T04:59:11;3.90;;;2.50;;
34697;SDS011;61391;50.922;6.928;2023-07-09T05:01:41;2.72;;;2.30;;
34697;SDS011;61391;50.922;6.928;2023-07-09T05:07:30;3.60;;;2.30;;
34697;SDS011;61391;50.922;6.928;2023-07-09T05:09:59;4.53;;;2.58;;
34697;SDS011;61391;50.922;6.928;2023-07-09T05:12:26;3.63;;;2.40;;
34697;SDS011;61391;50.922;6.928;2023-07-09T05:14:54;3.05;;;2.15;;
34697;SDS011;61391;50.922;6.928;2023-07-09T05:21:06;3.72;;;2.38;;
34697;SDS011;61391;50.922;6.928;2023-07-09T05:23:33;7.05;;;2.60;;
34697;SDS011;61391;50.922;6.928;2023-07-09T05:29:24;3.97;;;2.00;;
34697;SDS011;61391;50.922;6.928;2023-07-09T05:35:14;4.17;;;2.63;;
34697;SDS011;61391;50.922;6.928;2023-07-09T05:41:05;2.77;;;2.40;;
34697;SDS011;61391;50.922;6.928;2023-07-09T05:43:32;4.40;;;2.67;;
34697;SDS011;61391;50.922;6.928;2023-07-09T05:45:58;3.00;;;2.03;;
34697;SDS011;61391;50.922;6.928;2023-07-09T05:48:28;3.47;;;2.40;;
34697;SDS011;61391;50.922;6.928;2023-07-09T05:50:54;4.93;;;2.45;;
34697;SDS011;61391;50.922;6.928;2023-07-09T05:53:20;2.45;;;2.20;;
34697;SDS011;61391;50.922;6.928;2023-07-09T05:55:46;2.53;;;2.05;;
34697;SDS011;61391;50.922;6.928;2023-07-09T05:58:12;3.60;;;2.53;;
34697;SDS011;61391;50.922;6.928;2023-07-09T06:04:05;2.60;;;2.40;;
34697;SDS011;61391;50.922;6.928;2023-07-09T06:06:32;3.10;;;2.00;;
34697;SDS011;61391;50.922;6.928;2023-07-09T06:08:58;1.90;;;1.80;;
34697;SDS011;61391;50.922;6.928;2023-07-09T06:14:51;5.55;;;2.05;;
34697;SDS011;61391;50.922;6.928;2023-07-09T06:20:45;2.85;;;1.90;;
34697;SDS011;61391;50.922;6.928;2023-07-09T06:23:15;3.53;;;2.38;;
34697;SDS011;61391;50.922;6.928;2023-07-09T06:25:42;4.00;;;1.83;;
34697;SDS011;61391;50.922;6.928;2023-07-09T06:28:14;3.20;;;2.33;;
34697;SDS011;61391;50.922;6.928;2023-07-09T06:34:08;2.83;;;2.53;;
34697;SDS011;61391;50.922;6.928;2023-07-09T06:39:57;4.38;;;2.22;;
34697;SDS011;61391;50.922;6.928;2023-07-09T06:46:01;3.20;;;2.57;;
34697;SDS011;61391;50.922;6.928;2023-07-09T06:48:33;3.60;;;2.00;;
34697;SDS011;61391;50.922;6.928;2023-07-09T06:51:04;2.60;;;2.30;;
34697;SDS011;61391;50.922;6.928;2023-07-09T06:56:55;2.00;;;1.65;;
34697;SDS011;61391;50.922;6.928;2023-07-09T06:59:22;2.53;;;2.20;;
34697;SDS011;61391;50.922;6.928;2023-07-09T07:05:13;3.50;;;2.70;;
34697;SDS011;61391;50.922;6.928;2023-07-09T07:07:42;4.28;;;2.00;;
34697;SDS011;61391;50.922;6.928;2023-07-09T07:13:33;2.78;;;2.15;;
34697;SDS011;61391;50.922;6.928;2023-07-09T07:16:04;4.90;;;2.30;;
34697;SDS011;61391;50.922;6.928;2023-07-09T07:18:38;2.85;;;1.95;;
34697;SDS011;61391;50.922;6.928;2023-07-09T07:24:32;2.35;;;1.80;;
34697;SDS011;61391;50.922;6.928;2023-07-09T07:30:29;2.03;;;1.80;;
34697;SDS011;61391;50.922;6.928;2023-07-09T07:32:56;2.30;;;2.10;;
34697;SDS011;61391;50.922;6.928;2023-07-09T07:35:41;2.38;;;2.00;;
34697;SDS011;61391;50.922;6.928;2023-07-09T07:38:09;2.85;;;1.92;;
34697;SDS011;61391;50.922;6.928;2023-07-09T07:40:38;4.22;;;2.50;;
34697;SDS011;61391;50.922;6.928;2023-07-09T07:43:05;3.20;;;2.30;;
34697;SDS011;61391;50.922;6.928;2023-07-09T07:48:58;2.47;;;1.55;;
34697;SDS011;61391;50.922;6.928;2023-07-09T07:51:32;3.97;;;2.15;;
34697;SDS011;61391;50.922;6.928;2023-07-09T07:53:59;1.92;;;1.73;;
34697;SDS011;61391;50.922;6.928;2023-07-09T07:56:34;2.58;;;2.38;;
34697;SDS011;61391;50.922;6.928;2023-07-09T07:59:12;2.20;;;1.80;;
34697;SDS011;61391;50.922;6.928;2023-07-09T08:02:03;2.30;;;2.10;;
34697;SDS011;61391;50.922;6.928;2023-07-09T08:04:32;1.90;;;1.80;;
34697;SDS011;61391;50.922;6.928;2023-07-09T08:07:01;2.83;;;2.00;;
34697;SDS011;61391;50.922;6.928;2023-07-09T08:09:35;2.40;;;1.90;;
34697;SDS011;61391;50.922;6.928;2023-07-09T08:16:12;3.83;;;1.90;;
34697;SDS011;61391;50.922;6.928;2023-07-09T08:22:31;2.10;;;1.90;;
34697;SDS011;61391;50.922;6.928;2023-07-09T08:32:26;2.38;;;1.70;;
34697;SDS011;61391;50.922;6.928;2023-07-09T08:38:26;3.55;;;2.20;;
34697;SDS011;61391;50.922;6.928;2023-07-09T08:49:50;2.90;;;1.85;;
34697;SDS011;61391;50.922;6.928;2023-07-09T08:52:40;2.35;;;2.15;;
34697;SDS011;61391;50.922;6.928;2023-07-09T08:55:11;3.25;;;2.15;;
34697;SDS011;61391;50.922;6.928;2023-07-09T08:57:47;3.13;;;1.83;;
34697;SDS011;61391;50.922;6.928;2023-07-09T09:00:51;2.63;;;1.80;;
34697;SDS011;61391;50.922;6.928;2023-07-09T09:06:37;3.00;;;2.22;;
34697;SDS011;61391;50.922;6.928;2023-07-09T09:12:16;2.10;;;1.90;;
34697;SDS011;61391;50.922;6.928;2023-07-09T09:14:59;1.90;;;1.80;;
34697;SDS011;61391;50.922;6.928;2023-07-09T09:21:13;2.67;;;2.20;;
34697;SDS011;61391;50.922;6.928;2023-07-09T09:24:20;2.05;;;1.85;;
34697;SDS011;61391;50.922;6.928;2023-07-09T09:27:15;2.33;;;2.10;;
34697;SDS011;61391;50.922;6.928;2023-07-09T09:29:53;2.15;;;1.85;;
34697;SDS011;61391;50.922;6.928;2023-07-09T09:32:28;2.75;;;1.92;;
34697;SDS011;61391;50.922;6.928;2023-07-09T09:35:38;2.45;;;2.05;;
34697;SDS011;61391;50.922;6.928;2023-07-09T09:38:53;2.50;;;2.15;;
34697;SDS011;61391;50.922;6.928;2023-07-09T09:45:11;1.95;;;1.83;;
34697;SDS011;61391;50.922;6.928;2023-07-09T09:57:53;2.28;;;2.08;;
34697;SDS011;61391;50.922;6.928;2023-07-09T10:00:55;2.40;;;2.25;;
34697;SDS011;61391;50.922;6.928;2023-07-09T10:03:37;1.90;;;1.70;;
34697;SDS011;61391;50.922;6.928;2023-07-09T10:06:23;3.28;;;2.20;;
34697;SDS011;61391;50.922;6.928;2023-07-09T10:12:32;2.22;;;2.00;;
34697;SDS011;61391;50.922;6.928;2023-07-09T10:27:53;3.55;;;2.08;;
34697;SDS011;61391;50.922;6.928;2023-07-09T10:33:10;2.57;;;2.00;;
34697;SDS011;61391;50.922;6.928;2023-07-09T10:38:23;3.08;;;1.80;;
34697;SDS011;61391;50.922;6.928;2023-07-09T10:41:15;2.67;;;2.08;;
34697;SDS011;61391;50.922;6.928;2023-07-09T10:43:44;1.98;;;1.77;;
34697;SDS011;61391;50.922;6.928;2023-07-09T10:49:17;2.55;;;2.05;;
34697;SDS011;61391;50.922;6.928;2023-07-09T11:05:04;1.67;;;1.58;;
34697;SDS011;61391;50.922;6.928;2023-07-09T11:11:15;2.45;;;1.77;;
34697;SDS011;61391;50.922;6.928;2023-07-09T11:17:21;2.83;;;1.70;;
34697;SDS011;61391;50.922;6.928;2023-07-09T11:23:23;2.17;;;1.90;;
34697;SDS011;61391;50.922;6.928;2023-07-09T11:26:14;1.90;;;1.75;;
34697;SDS011;61391;50.922;6.928;2023-07-09T11:29:15;2.15;;;1.95;;
34697;SDS011;61391;50.922;6.928;2023-07-09T11:31:46;2.10;;;1.90;;
34697;SDS011;61391;50.922;6.928;2023-07-09T11:34:18;1.95;;;1.73;;
34697;SDS011;61391;50.922;6.928;2023-07-09T11:40:10;1.92;;;1.73;;
34697;SDS011;61391;50.922;6.928;2023-07-09T11:42:51;2.05;;;1.85;;
34697;SDS011;61391;50.922;6.928;2023-07-09T11:48:44;1.50;;;1.20;;
34697;SDS011;61391;50.922;6.928;2023-07-09T11:51:17;1.60;;;1.50;;
34697;SDS011;61391;50.922;6.928;2023-07-09T11:53:53;3.17;;;1.40;;
34697;SDS011;61391;50.922;6.928;2023-07-09T11:56:24;2.50;;;1.63;;
34697;SDS011;61391;50.922;6.928;2023-07-09T11:58:55;1.60;;;1.48;;
34697;SDS011;61391;50.922;6.928;2023-07-09T12:01:33;5.05;;;1.38;;
34697;SDS011;61391;50.922;6.928;2023-07-09T12:07:26;2.17;;;1.50;;
34697;SDS011;61391;50.922;6.928;2023-07-09T12:13:41;3.70;;;1.85;;
34697;SDS011;61391;50.922;6.928;2023-07-09T12:16:29;1.80;;;1.30;;
34697;SDS011;61391;50.922;6.928;2023-07-09T12:19:17;2.25;;;1.63;;
34697;SDS011;61391;50.922;6.928;2023-07-09T12:21:49;1.58;;;1.45;;
34697;SDS011;61391;50.922;6.928;2023-07-09T12:24:25;1.80;;;1.58;;
34697;SDS011;61391;50.922;6.928;2023-07-09T12:27:21;1.80;;;1.52;;
34697;SDS011;61391;50.922;6.928;2023-07-09T12:30:08;1.70;;;1.23;;
34697;SDS011;61391;50.922;6.928;2023-07-09T12:32:45;2.22;;;1.40;;
34697;SDS011;61391;50.922;6.928;2023-07-09T12:35:22;1.58;;;1.48;;
34697;SDS011;61391;50.922;6.928;2023-07-09T12:40:59;1.60;;;1.40;;
34697;SDS011;61391;50.922;6.928;2023-07-09T12:43:38;1.65;;;1.42;;
34697;SDS011;61391;50.922;6.928;2023-07-09T12:46:05;1.67;;;1.40;;
34697;SDS011;61391;50.922;6.928;2023-07-09T12:48:45;2.97;;;1.92;;
34697;SDS011;61391;50.922;6.928;2023-07-09T13:00:52;3.08;;;1.75;;
34697;SDS011;61391;50.922;6.928;2023-07-09T13:03:29;1.60;;;1.30;;
34697;SDS011;61391;50.922;6.928;2023-07-09T13:06:01;4.82;;;1.90;;
34697;SDS011;61391;50.922;6.928;2023-07-09T13:11:46;1.50;;;1.40;;
34697;SDS011;61391;50.922;6.928;2023-07-09T13:17:07;2.78;;;1.90;;
34697;SDS011;61391;50.922;6.928;2023-07-09T13:19:36;2.38;;;1.73;;
34697;SDS011;61391;50.922;6.928;2023-07-09T13:22:04;1.75;;;1.63;;
34697;SDS011;61391;50.922;6.928;2023-07-09T13:24:34;2.45;;;1.77;;
34697;SDS011;61391;50.922;6.928;2023-07-09T13:27:01;4.05;;;2.05;;
34697;SDS011;61391;50.922;6.928;2023-07-09T13:29:30;3.40;;;2.55;;
34697;SDS011;61391;50.922;6.928;2023-07-09T13:31:59;1.73;;;1.48;;
34697;SDS011;61391;50.922;6.928;2023-07-09T13:37:33;1.88;;;1.67;;
34697;SDS011;61391;50.922;6.928;2023-07-09T13:40:03;1.85;;;1.67;;
34697;SDS011;61391;50.922;6.928;2023-07-09T13:42:34;2.50;;;1.85;;
34697;SDS011;61391;50.922;6.928;2023-07-09T13:45:04;1.60;;;1.50;;
34697;SDS011;61391;50.922;6.928;2023-07-09T13:56:49;2.13;;;1.58;;
34697;SDS011;61391;50.922;6.928;2023-07-09T14:02:41;3.30;;;2.03;;
34697;SDS011;61391;50.922;6.928;2023-07-09T14:05:20;2.08;;;1.50;;
34697;SDS011;61391;50.922;6.928;2023-07-09T14:11:13;1.70;;;1.50;;
34697;SDS011;61391;50.922;6.928;2023-07-09T14:13:48;1.85;;;1.73;;
34697;SDS011;61391;50.922;6.928;2023-07-09T14:16:37;3.08;;;2.28;;
34697;SDS011;61391;50.922;6.928;2023-07-09T14:23:03;2.40;;;1.80;;
34697;SDS011;61391;50.922;6.928;2023-07-09T14:29:04;2.10;;;1.63;;
34697;SDS011;61391;50.922;6.928;2023-07-09T14:31:31;3.03;;;1.50;;
34697;SDS011;61391;50.922;6.928;2023-07-09T14:34:10;2.13;;;1.25;;
34697;SDS011;61391;50.922;6.928;2023-07-09T14:43:15;2.30;;;1.60;;
34697;SDS011;61391;50.922;6.928;2023-07-09T14:45:45;2.80;;;1.65;;
34697;SDS011;61391;50.922;6.928;2023-07-09T14:48:12;1.80;;;1.70;;
34697;SDS011;61391;50.922;6.928;2023-07-09T14:54:04;1.92;;;1.67;;
34697;SDS011;61391;50.922;6.928;2023-07-09T15:03:28;3.63;;;2.67;;
34697;SDS011;61391;50.922;6.928;2023-07-09T15:06:46;2.70;;;2.15;;
34697;SDS011;61391;50.922;6.928;2023-07-09T15:10:02;3.00;;;1.70;;
34697;SDS011;61391;50.922;6.928;2023-07-09T15:13:03;2.38;;;1.75;;
34697;SDS011;61391;50.922;6.928;2023-07-09T15:19:25;1.85;;;1.63;;
34697;SDS011;61391;50.922;6.928;2023-07-09T15:21:54;2.67;;;2.00;;
34697;SDS011;61391;50.922;6.928;2023-07-09T15:27:41;3.30;;;2.45;;
34697;SDS011;61391;50.922;6.928;2023-07-09T15:30:26;2.65;;;2.13;;
34697;SDS011;61391;50.922;6.928;2023-07-09T15:36:23;3.15;;;2.20;;
34697;SDS011;61391;50.922;6.928;2023-07-09T15:38:49;2.83;;;2.22;;
34697;SDS011;61391;50.922;6.928;2023-07-09T15:41:30;5.27;;;2.70;;
34697;SDS011;61391;50.922;6.928;2023-07-09T15:47:26;3.03;;;2.73;;
34697;SDS011;61391;50.922;6.928;2023-07-09T15:49:53;2.40;;;2.20;;
34697;SDS011;61391;50.922;6.928;2023-07-09T15:52:20;5.28;;;2.50;;
34697;SDS011;61391;50.922;6.928;2023-07-09T15:54:48;4.50;;;2.28;;
34697;SDS011;61391;50.922;6.928;2023-07-09T16:00:36;3.60;;;2.60;;
34697;SDS011;61391;50.922;6.928;2023-07-09T16:03:04;3.20;;;2.90;;
34697;SDS011;61391;50.922;6.928;2023-07-09T16:05:33;4.03;;;3.25;;
34697;SDS011;61391;50.922;6.928;2023-07-09T16:08:00;3.17;;;2.80;;
34697;SDS011;61391;50.922;6.928;2023-07-09T16:10:26;5.93;;;3.30;;
34697;SDS011;61391;50.922;6.928;2023-07-09T16:12:56;3.75;;;2.42;;
34697;SDS011;61391;50.922;6.928;2023-07-09T16:15:22;2.85;;;2.30;;
34697;SDS011;61391;50.922;6.928;2023-07-09T16:17:51;4.18;;;2.10;;
34697;SDS011;61391;50.922;6.928;2023-07-09T16:20:25;3.42;;;2.50;;
34697;SDS011;61391;50.922;6.928;2023-07-09T16:22:56;3.63;;;2.30;;
34697;SDS011;61391;50.922;6.928;2023-07-09T16:27:54;2.70;;;1.95;;
34697;SDS011;61391;50.922;6.928;2023-07-09T16:30:23;2.35;;;2.15;;
34697;SDS011;61391;50.922;6.928;2023-07-09T16:32:57;2.72;;;2.00;;
34697;SDS011;61391;50.922;6.928;2023-07-09T16:35:26;2.78;;;1.95;;
34697;SDS011;61391;50.922;6.928;2023-07-09T16:44:29;3.70;;;2.50;;
34697;SDS011;61391;50.922;6.928;2023-07-09T16:50:25;3.83;;;2.28;;
34697;SDS011;61391;50.922;6.928;2023-07-09T16:52:52;4.15;;;2.13;;
34697;SDS011;61391;50.922;6.928;2023-07-09T16:55:19;5.47;;;2.30;;
34697;SDS011;61391;50.922;6.928;2023-07-09T16:57:51;2.60;;;2.13;;
34697;SDS011;61391;50.922;6.928;2023-07-09T17:00:23;2.63;;;2.40;;
34697;SDS011;61391;50.922;6.928;2023-07-09T17:03:03;2.65;;;2.03;;
34697;SDS011;61391;50.922;6.928;2023-07-09T17:05:36;2.75;;;2.30;;
34697;SDS011;61391;50.922;6.928;2023-07-09T17:08:05;3.08;;;2.42;;
34697;SDS011;61391;50.922;6.928;2023-07-09T17:10:33;2.40;;;1.85;;
34697;SDS011;61391;50.922;6.928;2023-07-09T17:16:21;2.60;;;1.80;;
34697;SDS011;61391;50.922;6.928;2023-07-09T17:18:49;3.42;;;2.25;;
34697;SDS011;61391;50.922;6.928;2023-07-09T17:21:15;3.33;;;1.92;;
34697;SDS011;61391;50.922;6.928;2023-07-09T17:23:42;3.00;;;2.30;;
34697;SDS011;61391;50.922;6.928;2023-07-09T17:26:10;2.85;;;2.38;;
34697;SDS011;61391;50.922;6.928;2023-07-09T17:31:58;3.83;;;2.70;;
34697;SDS011;61391;50.922;6.928;2023-07-09T17:48:27;2.88;;;2.25;;
34697;SDS011;61391;50.922;6.928;2023-07-09T17:57:50;2.28;;;1.63;;
34697;SDS011;61391;50.922;6.928;2023-07-09T18:11:20;5.43;;;1.75;;
34697;SDS011;61391;50.922;6.928;2023-07-09T18:13:51;2.05;;;1.85;;
34697;SDS011;61391;50.922;6.928;2023-07-09T18:19:48;2.92;;;2.17;;
34697;SDS011;61391;50.922;6.928;2023-07-09T18:25:41;3.05;;;2.00;;
34697;SDS011;61391;50.922;6.928;2023-07-09T18:38:38;2.20;;;1.70;;
34697;SDS011;61391;50.922;6.928;2023-07-09T18:41:11;2.33;;;2.00;;
34697;SDS011;61391;50.922;6.928;2023-07-09T18:43:46;2.33;;;1.90;;
34697;SDS011;61391;50.922;6.928;2023-07-09T18:46:36;3.08;;;2.58;;
34697;SDS011;61391;50.922;6.928;2023-07-09T18:49:06;2.90;;;2.13;;
34697;SDS011;61391;50.922;6.928;2023-07-09T18:58:27;2.38;;;2.00;;
34697;SDS011;61391;50.922;6.928;2023-07-09T19:01:25;2.60;;;2.22;;
34697;SDS011;61391;50.922;6.928;2023-07-09T19:03:58;2.70;;;2.33;;
34697;SDS011;61391;50.922;6.928;2023-07-09T19:06:39;3.05;;;2.60;;
34697;SDS011;61391;50.922;6.928;2023-07-09T19:09:27;3.60;;;2.50;;
34697;SDS011;61391;50.922;6.928;2023-07-09T19:11:54;3.28;;;2.40;;
34697;SDS011;61391;50.922;6.928;2023-07-09T19:14:20;3.90;;;2.70;;
34697;SDS011;61391;50.922;6.928;2023-07-09T19:16:54;4.18;;;2.10;;
34697;SDS011;61391;50.922;6.928;2023-07-09T19:22:44;4.85;;;2.47;;
34697;SDS011;61391;50.922;6.928;2023-07-09T19:25:30;4.05;;;2.88;;
34697;SDS011;61391;50.922;6.928;2023-07-09T19:28:00;3.45;;;2.38;;
34697;SDS011;61391;50.922;6.928;2023-07-09T19:34:08;4.18;;;2.67;;
34697;SDS011;61391;50.922;6.928;2023-07-09T19:36:49;3.25;;;2.90;;
34697;SDS011;61391;50.922;6.928;2023-07-09T19:42:10;3.78;;;2.90;;
34697;SDS011;61391;50.922;6.928;2023-07-09T19:48:02;3.97;;;2.70;;
34697;SDS011;61391;50.922;6.928;2023-07-09T19:53:50;3.70;;;2.97;;
34697;SDS011;61391;50.922;6.928;2023-07-09T19:59:46;4.15;;;2.95;;
34697;SDS011;61391;50.922;6.928;2023-07-09T20:02:22;3.70;;;3.00;;
34697;SDS011;61391;50.922;6.928;2023-07-09T20:04:54;5.10;;;3.13;;
34697;SDS011;61391;50.922;6.928;2023-07-09T20:07:26;3.50;;;2.90;;
34697;SDS011;61391;50.922;6.928;2023-07-09T20:13:15;4.15;;;3.75;;
34697;SDS011;61391;50.922;6.928;2023-07-09T20:15:54;3.65;;;3.35;;
34697;SDS011;61391;50.922;6.928;2023-07-09T20:18:26;4.53;;;3.33;;
34697;SDS011;61391;50.922;6.928;2023-07-09T20:20:54;5.05;;;3.13;;
34697;SDS011;61391;50.922;6.928;2023-07-09T20:23:24;3.40;;;3.10;;
34697;SDS011;61391;50.922;6.928;2023-07-09T20:25:52;4.00;;;3.47;;
34697;SDS011;61391;50.922;6.928;2023-07-09T20:28:21;7.68;;;3.72;;
34697;SDS011;61391;50.922;6.928;2023-07-09T20:30:50;4.30;;;3.10;;
34697;SDS011;61391;50.922;6.928;2023-07-09T20:33:19;4.07;;;3.30;;
34697;SDS011;61391;50.922;6.928;2023-07-09T20:35:57;4.35;;;3.75;;
34697;SDS011;61391;50.922;6.928;2023-07-09T20:38:23;3.92;;;3.53;;
34697;SDS011;61391;50.922;6.928;2023-07-09T20:44:25;5.00;;;3.13;;
34697;SDS011;61391;50.922;6.928;2023-07-09T20:46:57;4.00;;;3.47;;
34697;SDS011;61391;50.922;6.928;2023-07-09T20:49:34;5.60;;;3.50;;
34697;SDS011;61391;50.922;6.928;2023-07-09T20:52:04;4.18;;;3.40;;
34697;SDS011;61391;50.922;6.928;2023-07-09T20:54:34;4.03;;;3.63;;
34697;SDS011;61391;50.922;6.928;2023-07-09T20:57:08;3.63;;;3.30;;
34697;SDS011;61391;50.922;6.928;2023-07-09T20:59:50;7.22;;;3.58;;
34697;SDS011;61391;50.922;6.928;2023-07-09T21:02:19;7.30;;;3.88;;
34697;SDS011;61391;50.922;6.928;2023-07-09T21:08:22;3.90;;;3.37;;
34697;SDS011;61391;50.922;6.928;2023-07-09T21:10:50;5.70;;;4.10;;
34697;SDS011;61391;50.922;6.928;2023-07-09T21:13:17;4.03;;;3.45;;
34697;SDS011;61391;50.922;6.928;2023-07-09T21:15:51;4.82;;;3.45;;
34697;SDS011;61391;50.922;6.928;2023-07-09T21:18:22;4.03;;;3.60;;
34697;SDS011;61391;50.922;6.928;2023-07-09T21:20:55;4.80;;;4.13;;
34697;SDS011;61391;50.922;6.928;2023-07-09T21:23:23;5.43;;;3.83;;
34697;SDS011;61391;50.922;6.928;2023-07-09T21:25:50;4.85;;;3.92;;
34697;SDS011;61391;50.922;6.928;2023-07-09T21:28:18;6.20;;;4.05;;
34697;SDS011;61391;50.922;6.928;2023-07-09T21:30:43;4.78;;;3.65;;
34697;SDS011;61391;50.922;6.928;2023-07-09T21:36:38;3.83;;;3.40;;
34697;SDS011;61391;50.922;6.928;2023-07-09T21:39:18;4.13;;;3.58;;
34697;SDS011;61391;50.922;6.928;2023-07-09T21:41:49;4.13;;;3.25;;
34697;SDS011;61391;50.922;6.928;2023-07-09T21:44:22;5.80;;;3.40;;
34697;SDS011;61391;50.922;6.928;2023-07-09T21:46:53;4.78;;;4.13;;
34697;SDS011;61391;50.922;6.928;2023-07-09T21:49:25;5.57;;;3.65;;
34697;SDS011;61391;50.922;6.928;2023-07-09T21:51:53;5.30;;;3.97;;
34697;SDS011;61391;50.922;6.928;2023-07-09T21:54:33;5.05;;;4.20;;
34697;SDS011;61391;50.922;6.928;2023-07-09T21:57:07;6.57;;;4.70;;
34697;SDS011;61391;50.922;6.928;2023-07-09T21:59:34;5.95;;;4.28;;
34697;SDS011;61391;50.922;6.928;2023-07-09T22:02:01;5.55;;;4.05;;
34697;SDS011;61391;50.922;6.928;2023-07-09T22:04:34;4.30;;;3.90;;
34697;SDS011;61391;50.922;6.928;2023-07-09T22:07:23;6.75;;;4.50;;
34697;SDS011;61391;50.922;6.928;2023-07-09T22:09:53;7.90;;;4.32;;
34697;SDS011;61391;50.922;6.928;2023-07-09T22:12:20;5.60;;;4.03;;
34697;SDS011;61391;50.922;6.928;2023-07-09T22:18:14;5.15;;;4.28;;
34697;SDS011;61391;50.922;6.928;2023-07-09T22:20:43;4.50;;;4.10;;
34697;SDS011;61391;50.922;6.928;2023-07-09T22:26:33;6.33;;;4.77;;
34697;SDS011;61391;50.922;6.928;2023-07-09T22:29:05;5.53;;;4.70;;
34697;SDS011;61391;50.922;6.928;2023-07-09T22:31:32;5.53;;;4.65;;
34697;SDS011;61391;50.922;6.928;2023-07-09T22:33:59;4.75;;;4.18;;
34697;SDS011;61391;50.922;6.928;2023-07-09T22:36:27;7.05;;;4.82;;
34697;SDS011;61391;50.922;6.928;2023-07-09T22:38:52;5.50;;;5.00;;
34697;SDS011;61391;50.922;6.928;2023-07-09T22:41:21;6.85;;;5.38;;
34697;SDS011;61391;50.922;6.928;2023-07-09T22:43:50;6.53;;;5.55;;
34697;SDS011;61391;50.922;6.928;2023-07-09T22:46:19;6.00;;;5.15;;